createdAt,value
2019-02-02T00:00:59.386Z,41.30
2019-02-02T00:03:30.765Z,39.63
2019-02-02T00:06:01.235Z,40.23
2019-02-02T00:08:31.920Z,34.83
2019-02-02T00:11:05.583Z,39.37
2019-02-02T00:13:36.096Z,34.33
2019-02-02T00:16:06.828Z,34.60
2019-02-02T00:18:39.134Z,40.65
2019-02-02T00:21:10.864Z,39.97
2019-02-02T00:23:42.470Z,43.53
2019-02-02T00:26:12.965Z,36.40
2019-02-02T00:28:43.572Z,36.20
2019-02-02T00:31:13.982Z,33.53
2019-02-02T00:33:48.155Z,34.25
2019-02-02T00:36:21.739Z,36.23
2019-02-02T00:38:52.576Z,39.33
2019-02-02T00:41:24.190Z,34.80
2019-02-02T00:43:54.667Z,38.00
2019-02-02T00:46:24.995Z,45.83
2019-02-02T00:48:57.782Z,38.80
2019-02-02T00:51:28.203Z,45.77
2019-02-02T00:54:00.244Z,40.50
2019-02-02T00:56:30.545Z,35.20
2019-02-02T00:59:01.838Z,31.17
2019-02-02T01:01:32.258Z,36.30
2019-02-02T01:04:03.094Z,35.00
2019-02-02T01:06:33.543Z,38.33
2019-02-02T01:09:07.127Z,39.90
2019-02-02T01:11:37.426Z,39.03
2019-02-02T01:14:08.235Z,42.53
2019-02-02T01:16:40.302Z,38.05
2019-02-02T01:19:10.827Z,41.17
2019-02-02T01:21:41.290Z,42.70
2019-02-02T01:24:13.374Z,41.83
2019-02-02T01:26:45.834Z,35.50
2019-02-02T01:29:17.665Z,40.40
2019-02-02T01:31:48.327Z,44.60
2019-02-02T01:34:21.578Z,35.93
2019-02-02T01:36:53.749Z,39.73
2019-02-02T01:39:24.148Z,36.17
2019-02-02T01:41:57.069Z,40.35
2019-02-02T01:44:29.889Z,41.37
2019-02-02T01:47:00.306Z,41.43
2019-02-02T01:49:30.902Z,46.43
2019-02-02T01:52:01.485Z,39.88
2019-02-02T01:54:31.959Z,40.80
2019-02-02T01:57:02.710Z,41.83
2019-02-02T01:59:32.984Z,38.10
2019-02-02T02:02:04.229Z,36.03
2019-02-02T02:04:34.694Z,35.37
2019-02-02T02:07:08.579Z,37.87
2019-02-02T02:09:42.667Z,39.40
2019-02-02T02:12:13.216Z,41.25
2019-02-02T02:14:46.130Z,37.67
2019-02-02T02:17:17.072Z,39.83
2019-02-02T02:19:47.579Z,36.43
2019-02-02T02:22:17.844Z,30.90
2019-02-02T02:24:48.156Z,35.87
2019-02-02T02:27:19.604Z,35.83
2019-02-02T02:29:50.017Z,38.30
2019-02-02T02:32:20.690Z,35.67
2019-02-02T02:34:51.278Z,38.47
2019-02-02T02:37:21.597Z,32.87
2019-02-02T02:39:52.559Z,39.20
2019-02-02T02:42:26.613Z,36.60
2019-02-02T02:44:59.211Z,36.63
2019-02-02T02:47:35.324Z,34.27
2019-02-02T02:50:07.618Z,39.88
2019-02-02T02:52:38.152Z,33.43
2019-02-02T02:55:10.395Z,33.27
2019-02-02T02:57:40.666Z,40.13
2019-02-02T03:00:17.849Z,36.30
2019-02-02T03:02:48.354Z,45.83
2019-02-02T03:05:19.754Z,34.30
2019-02-02T03:07:52.948Z,38.83
2019-02-02T03:10:25.321Z,37.57
2019-02-02T03:12:57.618Z,34.77
2019-02-02T03:15:28.045Z,41.17
2019-02-02T03:17:58.392Z,39.23
2019-02-02T03:20:28.819Z,34.77
2019-02-02T03:22:59.158Z,39.03
2019-02-02T03:25:29.837Z,37.95
2019-02-02T03:28:00.131Z,43.50
2019-02-02T03:30:30.431Z,43.38
2019-02-02T03:33:00.750Z,35.57
2019-02-02T03:35:33.700Z,41.57
2019-02-02T03:38:09.500Z,46.73
2019-02-02T03:40:39.811Z,44.83
2019-02-02T03:43:14.635Z,44.93
2019-02-02T03:45:44.903Z,37.83
2019-02-02T03:48:15.282Z,38.50
2019-02-02T03:50:46.097Z,39.53
2019-02-02T03:53:18.366Z,39.70
2019-02-02T03:55:52.115Z,42.60
2019-02-02T03:58:25.641Z,49.63
2019-02-02T04:00:56.335Z,40.58
2019-02-02T04:03:27.032Z,49.03
2019-02-02T04:05:57.714Z,44.10
2019-02-02T04:08:28.196Z,45.80
2019-02-02T04:10:59.944Z,46.10
2019-02-02T04:13:30.198Z,50.40
2019-02-02T04:16:01.541Z,50.45
2019-02-02T04:18:31.870Z,51.27
2019-02-02T04:21:02.320Z,49.93
2019-02-02T04:23:32.653Z,49.40
2019-02-02T04:26:03.159Z,51.20
2019-02-02T04:28:34.563Z,52.47
2019-02-02T04:31:10.926Z,57.37
2019-02-02T04:33:42.344Z,55.10
2019-02-02T04:36:17.582Z,55.45
2019-02-02T04:38:47.915Z,57.47
2019-02-02T04:41:20.341Z,61.13
2019-02-02T04:43:50.978Z,64.85
2019-02-02T04:46:23.731Z,59.67
2019-02-02T04:48:54.249Z,63.83
2019-02-02T04:51:24.742Z,67.40
2019-02-02T04:53:57.992Z,61.87
2019-02-02T04:56:29.802Z,65.62
2019-02-02T04:59:00.094Z,67.87
2019-02-02T05:01:30.475Z,71.43
2019-02-02T05:04:01.046Z,67.17
2019-02-02T05:06:31.448Z,71.27
2019-02-02T05:09:02.115Z,68.92
2019-02-02T05:11:33.471Z,70.17
2019-02-02T05:14:03.739Z,77.03
2019-02-02T05:16:35.350Z,69.57
2019-02-02T05:19:05.671Z,72.50
2019-02-02T05:21:36.094Z,65.27
2019-02-02T05:24:06.611Z,66.13
2019-02-02T05:26:48.727Z,78.07
2019-02-02T05:29:28.196Z,65.17
2019-02-02T05:31:58.437Z,71.97
2019-02-02T05:34:29.171Z,73.52
2019-02-02T05:36:59.513Z,80.00
2019-02-02T05:39:30.097Z,82.50
2019-02-02T05:42:00.560Z,79.60
2019-02-02T05:44:31.161Z,83.03
2019-02-02T05:47:02.846Z,81.77
2019-02-02T05:49:34.234Z,82.85
2019-02-02T05:52:04.736Z,82.27
2019-02-02T05:54:35.193Z,91.40
2019-02-02T05:57:05.486Z,101.57
2019-02-02T05:59:36.658Z,85.57
2019-02-02T06:02:08.291Z,91.17
2019-02-02T06:05:18.990Z,95.30
2019-02-02T06:07:33.537Z,90.37
2019-02-02T06:09:58.423Z,94.87
2019-02-02T06:12:32.892Z,88.37
2019-02-02T06:15:04.843Z,90.87
2019-02-02T06:17:35.348Z,92.20
2019-02-02T06:20:07.331Z,90.73
2019-02-02T06:22:37.734Z,95.03
2019-02-02T06:25:09.859Z,99.97
2019-02-02T06:27:40.195Z,99.90
2019-02-02T06:30:13.928Z,105.47
2019-02-02T06:32:44.352Z,104.63
2019-02-02T06:35:15.629Z,81.85
2019-02-02T06:37:46.487Z,94.30
2019-02-02T06:40:16.886Z,89.97
2019-02-02T06:42:50.029Z,106.80
2019-02-02T06:45:31.277Z,92.97
2019-02-02T06:48:01.578Z,101.03
2019-02-02T06:50:32.372Z,84.87
2019-02-02T06:53:03.306Z,78.23
2019-02-02T06:55:33.982Z,83.00
2019-02-02T06:58:04.907Z,100.00
2019-02-02T07:00:35.614Z,100.87
2019-02-02T07:03:06.014Z,107.80
2019-02-02T07:05:36.614Z,105.23
2019-02-02T07:08:07.007Z,119.00
2019-02-02T07:10:44.062Z,98.42
2019-02-02T07:13:19.007Z,83.00
2019-02-02T07:15:50.409Z,77.77
2019-02-02T07:18:20.871Z,113.90
2019-02-02T07:20:52.011Z,121.70
2019-02-02T07:23:22.338Z,131.67
2019-02-02T07:25:53.159Z,124.77
2019-02-02T07:28:23.491Z,120.30
2019-02-02T07:30:55.716Z,123.70
2019-02-02T07:33:26.245Z,124.57
2019-02-02T07:36:03.710Z,132.12
2019-02-02T07:38:40.097Z,124.33
2019-02-02T07:41:10.367Z,140.30
2019-02-02T07:43:40.674Z,114.60
2019-02-02T07:46:15.076Z,136.66
2019-02-02T07:48:44.110Z,127.53
2019-02-02T07:51:14.686Z,97.67
2019-02-02T07:53:44.991Z,134.47
2019-02-02T07:56:15.706Z,143.03
2019-02-02T07:58:46.548Z,124.87
2019-02-02T08:01:16.973Z,139.83
2019-02-02T08:03:50.632Z,123.87
2019-02-02T08:06:27.095Z,149.57
2019-02-02T08:09:05.912Z,135.13
2019-02-02T08:11:38.248Z,124.55
2019-02-02T08:14:11.353Z,145.97
2019-02-02T08:16:42.917Z,133.80
2019-02-02T08:19:13.331Z,127.00
2019-02-02T08:21:45.627Z,152.53
2019-02-02T08:24:20.814Z,123.58
2019-02-02T08:26:51.476Z,140.77
2019-02-02T08:29:22.106Z,170.50
2019-02-02T08:31:53.632Z,149.24
2019-02-02T08:34:23.972Z,146.23
2019-02-02T08:37:22.563Z,126.40
2019-02-02T08:39:44.012Z,143.77
2019-02-02T08:42:14.472Z,134.97
2019-02-02T08:44:44.866Z,149.53
2019-02-02T08:47:15.288Z,148.03
2019-02-02T08:49:45.758Z,155.07
2019-02-02T08:52:16.450Z,132.80
2019-02-02T08:54:48.207Z,140.30
2019-02-02T08:57:18.891Z,123.67
2019-02-02T08:59:49.246Z,149.57
2019-02-02T09:02:20.082Z,152.27
2019-02-02T09:04:50.842Z,164.53
2019-02-02T09:07:24.431Z,142.45
2019-02-02T09:09:58.250Z,147.77
2019-02-02T09:12:30.604Z,154.68
2019-02-02T09:15:08.074Z,162.93
2019-02-02T09:17:52.267Z,153.75
2019-02-02T09:20:26.343Z,144.07
2019-02-02T09:23:09.818Z,147.17
2019-02-02T09:25:38.890Z,155.80
2019-02-02T09:28:12.091Z,162.97
2019-02-02T09:30:46.887Z,164.43
2019-02-02T09:33:20.157Z,147.33
2019-02-02T09:36:01.330Z,141.50
2019-02-02T09:38:35.210Z,123.80
2019-02-02T09:41:07.035Z,136.40
2019-02-02T09:43:42.364Z,205.30
2019-02-02T09:46:13.649Z,182.33
2019-02-02T09:48:46.778Z,150.53
2019-02-02T09:51:17.527Z,206.68
2019-02-02T09:53:53.357Z,204.53
2019-02-02T09:56:24.570Z,157.57
2019-02-02T09:58:55.151Z,159.87
2019-02-02T10:01:27.870Z,213.30
2019-02-02T10:03:57.849Z,163.60
2019-02-02T10:06:31.162Z,174.10
2019-02-02T10:09:01.498Z,170.20
2019-02-02T10:11:34.276Z,147.10
2019-02-02T10:14:07.059Z,159.63
2019-02-02T10:16:42.156Z,128.73
2019-02-02T10:19:15.746Z,146.07
2019-02-02T10:21:46.137Z,132.43
2019-02-02T10:24:28.769Z,134.37
2019-02-02T10:27:18.600Z,136.60
2019-02-02T10:29:56.391Z,126.60
2019-02-02T10:32:29.825Z,122.63
2019-02-02T10:35:05.966Z,122.13
2019-02-02T10:37:36.525Z,124.63
2019-02-02T10:40:10.197Z,127.78
2019-02-02T10:42:40.881Z,127.90
2019-02-02T10:45:21.390Z,121.77
2019-02-02T10:47:50.452Z,128.73
2019-02-02T10:50:21.353Z,124.83
2019-02-02T10:52:54.092Z,101.30
2019-02-02T10:55:24.822Z,116.22
2019-02-02T10:57:55.479Z,118.40
2019-02-02T11:00:30.205Z,108.42
2019-02-02T11:03:00.724Z,101.37
2019-02-02T11:05:32.873Z,113.23
2019-02-02T11:08:08.783Z,112.67
2019-02-02T11:10:42.021Z,108.90
2019-02-02T11:13:16.343Z,104.05
2019-02-02T11:19:12.557Z,120.50
2019-02-02T11:21:51.503Z,111.65
2019-02-02T11:24:34.814Z,117.93
2019-02-02T11:27:15.742Z,113.67
2019-02-02T11:29:47.537Z,107.63
2019-02-02T11:32:25.190Z,110.10
2019-02-02T11:34:58.361Z,109.40
2019-02-02T11:37:34.725Z,98.53
2019-02-02T11:40:06.362Z,99.43
2019-02-02T11:42:36.991Z,94.73
2019-02-02T11:45:11.369Z,90.05
2019-02-02T11:47:41.907Z,91.27
2019-02-02T11:50:15.576Z,97.62
2019-02-02T11:52:46.051Z,89.33
2019-02-02T11:55:17.520Z,92.88
2019-02-02T11:57:50.617Z,89.67
2019-02-02T12:00:29.087Z,85.77
2019-02-02T12:03:00.558Z,93.10
2019-02-02T12:05:31.567Z,95.90
2019-02-02T12:08:03.717Z,98.00
2019-02-02T12:10:34.637Z,93.72
2019-02-02T12:13:07.593Z,99.90
2019-02-02T12:15:40.462Z,99.60
2019-02-02T12:18:11.969Z,101.43
2019-02-02T12:20:43.146Z,101.45
2019-02-02T12:23:17.452Z,104.77
2019-02-02T12:25:56.597Z,127.60
2019-02-02T12:28:28.334Z,113.17
2019-02-02T12:30:58.665Z,108.73
2019-02-02T12:33:29.323Z,118.83
2019-02-02T12:36:00.759Z,124.93
2019-02-02T12:38:33.592Z,114.58
2019-02-02T12:41:04.097Z,112.73
2019-02-02T12:43:35.691Z,111.83
2019-02-02T12:46:07.542Z,111.90
2019-02-02T12:48:42.242Z,117.40
2019-02-02T12:51:16.770Z,126.40
2019-02-02T12:53:55.905Z,125.77
2019-02-02T12:56:32.379Z,130.87
2019-02-02T12:59:12.590Z,133.73
2019-02-02T13:01:48.025Z,144.43
2019-02-02T13:04:23.958Z,133.93
2019-02-02T13:06:56.120Z,138.92
2019-02-02T13:09:48.652Z,145.73
2019-02-02T13:12:34.805Z,146.87
2019-02-02T13:15:05.703Z,136.63
2019-02-02T13:17:42.869Z,142.00
2019-02-02T13:20:21.633Z,158.85
2019-02-02T13:22:56.138Z,148.53
2019-02-02T13:25:36.895Z,139.34
2019-02-02T13:28:12.743Z,144.63
2019-02-02T13:31:02.027Z,150.37
2019-02-02T13:33:34.455Z,147.07
2019-02-02T13:36:10.707Z,139.50
2019-02-02T13:38:58.879Z,141.07
2019-02-02T13:41:34.356Z,140.30
2019-02-02T13:44:08.565Z,135.57
2019-02-02T13:46:46.550Z,134.72
2019-02-02T13:49:34.942Z,129.90
2019-02-02T13:52:09.490Z,122.73
2019-02-02T13:54:52.840Z,126.83
2019-02-02T13:57:31.379Z,130.37
2019-02-02T14:00:12.093Z,157.23
2019-02-02T14:02:44.581Z,151.73
2019-02-02T14:05:19.870Z,145.43
2019-02-02T14:08:00.085Z,149.90
2019-02-02T14:10:32.887Z,136.07
2019-02-02T14:13:20.778Z,136.77
2019-02-02T14:15:51.372Z,148.45
2019-02-02T14:18:30.848Z,142.27
2019-02-02T14:21:10.085Z,153.93
2019-02-02T14:23:42.695Z,144.53
2019-02-02T14:26:14.818Z,152.57
2019-02-02T14:28:50.058Z,139.50
2019-02-02T14:31:40.454Z,134.22
2019-02-02T14:34:06.824Z,132.47
2019-02-02T14:36:41.618Z,157.87
2019-02-02T14:39:32.109Z,151.37
2019-02-02T14:42:06.070Z,144.70
2019-02-02T14:44:55.489Z,134.25
2019-02-02T14:47:28.343Z,131.15
2019-02-02T14:50:18.941Z,144.37
2019-02-02T14:52:53.728Z,158.17
2019-02-02T14:55:28.881Z,151.05
2019-02-02T14:58:02.439Z,168.13
2019-02-02T15:00:38.799Z,145.97
2019-02-02T15:03:10.518Z,157.20
2019-02-02T15:05:53.074Z,168.97
2019-02-02T15:08:27.254Z,168.77
2019-02-02T15:11:01.176Z,153.45
2019-02-02T15:13:50.586Z,161.40
2019-02-02T15:16:29.792Z,160.73
2019-02-02T15:19:25.075Z,160.18
2019-02-02T15:21:54.476Z,167.17
2019-02-02T15:24:27.930Z,159.90
2019-02-02T15:27:29.795Z,159.95
2019-02-02T15:29:49.816Z,160.70
2019-02-02T15:32:38.043Z,179.72
2019-02-02T15:35:10.618Z,164.17
2019-02-02T15:37:47.976Z,175.03
2019-02-02T15:40:25.155Z,174.57
2019-02-02T15:42:56.618Z,182.07
2019-02-02T15:45:36.570Z,181.27
2019-02-02T15:48:24.849Z,198.27
2019-02-02T15:51:08.733Z,184.60
2019-02-02T15:53:50.845Z,182.17
2019-02-02T15:56:50.571Z,194.95
2019-02-02T15:59:03.165Z,195.63
2019-02-02T16:01:35.164Z,191.37
2019-02-02T16:04:05.632Z,231.77
2019-02-02T16:06:35.975Z,219.82
2019-02-02T16:09:09.264Z,209.37
2019-02-02T16:11:40.976Z,213.43
2019-02-02T16:14:21.566Z,209.30
2019-02-02T16:16:59.407Z,227.20
2019-02-02T16:19:45.200Z,220.53
2019-02-02T16:22:28.691Z,205.33
2019-02-02T16:25:11.964Z,198.57
2019-02-02T16:27:34.519Z,212.97
2019-02-02T16:30:08.636Z,214.70
2019-02-02T16:32:41.884Z,246.37
2019-02-02T16:35:12.610Z,249.60
2019-02-02T16:37:44.986Z,227.60
2019-02-02T16:40:18.334Z,253.07
2019-02-02T16:42:59.322Z,281.13
2019-02-02T16:45:52.891Z,261.13
2019-02-02T16:48:30.419Z,243.82
2019-02-02T16:51:14.828Z,275.00
2019-02-02T16:53:58.468Z,294.33
2019-02-02T16:56:46.666Z,260.17
2019-02-02T16:59:25.224Z,252.36
2019-02-02T17:02:05.957Z,323.00
2019-02-02T17:04:38.228Z,284.18
2019-02-02T17:07:14.971Z,298.90
2019-02-02T17:09:56.233Z,274.20
2019-02-02T17:13:24.563Z,243.35
2019-02-02T17:15:06.133Z,302.97
2019-02-02T17:17:38.399Z,280.12
2019-02-02T17:20:15.002Z,323.73
2019-02-02T17:22:45.694Z,314.13
2019-02-02T17:25:17.890Z,320.07
2019-02-02T17:27:56.897Z,335.86
2019-02-02T17:30:32.647Z,381.23
2019-02-02T17:33:26.667Z,348.87
2019-02-02T17:36:01.800Z,328.10
2019-02-02T17:38:41.027Z,372.47
2019-02-02T17:41:12.668Z,331.63
2019-02-02T17:43:45.382Z,311.43
2019-02-02T17:46:15.866Z,377.07
2019-02-02T17:48:46.634Z,334.80
2019-02-02T17:51:17.382Z,330.27
2019-02-02T17:53:47.747Z,365.17
2019-02-02T17:56:20.294Z,336.70
2019-02-02T17:59:00.438Z,290.93
2019-02-02T18:01:40.877Z,288.60
2019-02-02T18:04:39.172Z,296.60
2019-02-02T18:07:19.815Z,288.00
2019-02-02T18:09:57.300Z,291.10
2019-02-02T18:12:37.982Z,259.78
2019-02-02T18:15:18.301Z,288.52
2019-02-02T18:17:52.778Z,292.90
2019-02-02T18:20:44.203Z,270.43
2019-02-02T18:23:10.992Z,295.27
2019-02-02T18:25:42.990Z,328.03
2019-02-02T18:28:13.537Z,314.37
2019-02-02T18:30:45.313Z,289.77
2019-02-02T18:33:17.006Z,306.60
2019-02-02T18:35:59.306Z,333.15
2019-02-02T18:38:37.237Z,281.08
2019-02-02T18:41:15.928Z,253.50
2019-02-02T18:43:52.189Z,261.70
2019-02-02T18:46:28.368Z,329.30
2019-02-02T18:49:27.869Z,256.30
2019-02-02T18:52:22.345Z,319.47
2019-02-02T18:54:55.923Z,255.03
2019-02-02T18:57:37.952Z,254.87
2019-02-02T19:00:14.317Z,273.35
2019-02-02T19:02:49.261Z,272.33
2019-02-02T19:05:29.256Z,255.07
2019-02-02T19:08:03.672Z,227.40
2019-02-02T19:10:48.857Z,265.40
2019-02-02T19:14:09.738Z,234.63
2019-02-02T19:16:31.193Z,224.63
2019-02-02T19:19:09.458Z,233.87
2019-02-02T19:21:57.089Z,233.90
2019-02-02T19:24:37.414Z,275.58
2019-02-02T19:27:16.856Z,253.30
2019-02-02T19:30:01.580Z,239.17
2019-02-02T19:32:35.659Z,227.95
2019-02-02T19:35:16.205Z,252.47
2019-02-02T19:37:42.925Z,248.13
2019-02-02T19:40:14.208Z,203.00
2019-02-02T19:42:44.893Z,234.83
2019-02-02T19:45:27.665Z,187.90
2019-02-02T19:48:07.635Z,194.13
2019-02-02T19:50:57.008Z,206.28
2019-02-02T19:53:42.133Z,190.97
2019-02-02T19:56:19.454Z,185.73
2019-02-02T19:58:51.755Z,206.55
2019-02-02T20:01:22.324Z,185.90
2019-02-02T20:03:52.988Z,204.30
2019-02-02T20:06:27.777Z,187.33
2019-02-02T20:09:03.623Z,200.78
2019-02-02T20:11:35.702Z,178.17
2019-02-02T20:14:06.568Z,192.90
2019-02-02T20:16:37.606Z,195.05
2019-02-02T20:19:11.143Z,179.03
2019-02-02T20:21:57.354Z,190.77
2019-02-02T20:24:13.977Z,204.16
2019-02-02T20:26:44.339Z,186.03
2019-02-02T20:29:15.162Z,193.20
2019-02-02T20:31:51.053Z,186.77
2019-02-02T20:34:39.441Z,199.75
2019-02-02T20:37:00.638Z,191.77
2019-02-02T20:39:37.003Z,212.20
2019-02-02T20:42:08.612Z,238.83
2019-02-02T20:44:38.965Z,185.23
2019-02-02T20:47:09.370Z,196.30
2019-02-02T20:49:50.898Z,176.40
2019-02-02T20:52:23.325Z,203.27
2019-02-02T20:55:03.677Z,210.07
2019-02-02T20:57:40.868Z,209.23
2019-02-02T21:00:14.756Z,239.07
2019-02-02T21:02:47.247Z,202.66
2019-02-02T21:05:31.829Z,185.50
2019-02-02T21:08:08.418Z,185.83
2019-02-02T21:10:47.499Z,186.50
2019-02-02T21:13:19.933Z,207.57
2019-02-02T21:15:50.584Z,196.73
2019-02-02T21:18:21.510Z,185.97
2019-02-02T21:21:06.493Z,208.00
2019-02-02T21:23:41.866Z,182.93
2019-02-02T21:26:11.712Z,191.03
2019-02-02T21:28:51.091Z,180.10
2019-02-02T21:31:26.856Z,146.50
2019-02-02T21:34:00.272Z,194.35
2019-02-02T21:36:31.141Z,175.57
2019-02-02T21:39:01.746Z,197.80
2019-02-02T21:41:35.429Z,174.87
2019-02-02T21:44:14.172Z,187.58
2019-02-02T21:47:01.531Z,180.47
2019-02-02T21:49:32.476Z,181.83
2019-02-02T21:52:06.026Z,196.37
2019-02-02T21:54:38.294Z,196.90
2019-02-02T21:57:08.663Z,201.83
2019-02-02T21:59:40.330Z,214.26
2019-02-02T22:02:17.967Z,214.47
2019-02-02T22:04:52.740Z,218.30
2019-02-02T22:07:27.123Z,199.07
2019-02-02T22:09:57.391Z,216.73
2019-02-02T22:12:27.759Z,192.70
2019-02-02T22:15:02.754Z,217.87
2019-02-02T22:17:38.353Z,224.37
2019-02-02T22:20:11.558Z,240.17
2019-02-02T22:22:47.857Z,256.20
2019-02-02T22:25:21.690Z,246.07
2019-02-02T22:28:20.834Z,227.63
2019-02-02T22:30:52.530Z,247.70
2019-02-02T22:33:09.529Z,233.23
2019-02-02T22:35:40.294Z,229.10
2019-02-02T22:38:10.977Z,242.82
2019-02-02T22:40:47.655Z,224.00
2019-02-02T22:43:35.564Z,206.17
2019-02-02T22:46:09.806Z,211.53
2019-02-02T22:48:51.076Z,226.07
2019-02-02T22:51:28.968Z,257.45
2019-02-02T22:54:24.616Z,238.70
2019-02-02T22:56:59.119Z,238.53
2019-02-02T22:59:40.135Z,249.23
2019-02-02T23:02:15.154Z,225.83
2019-02-02T23:05:06.724Z,240.00
2019-02-02T23:08:11.373Z,236.98
2019-02-02T23:11:25.762Z,201.37
2019-02-02T23:14:52.684Z,205.97
2019-02-02T23:17:22.996Z,191.00
2019-02-02T23:20:03.467Z,203.23
2019-02-02T23:22:35.472Z,188.37
2019-02-02T23:25:12.791Z,186.47
2019-02-02T23:27:49.510Z,206.43
2019-02-02T23:30:28.008Z,193.33
2019-02-02T23:32:53.612Z,212.40
2019-02-02T23:35:24.250Z,189.37
2019-02-02T23:37:55.506Z,210.02
2019-02-02T23:40:27.506Z,205.80
2019-02-02T23:43:01.938Z,199.17
2019-02-02T23:45:40.725Z,207.10
2019-02-02T23:48:10.307Z,207.44
2019-02-02T23:50:56.619Z,195.33
2019-02-02T23:53:13.230Z,203.65
2019-02-02T23:55:43.804Z,188.90
2019-02-02T23:58:17.947Z,202.16
